Time;durP1;ratioP1;P1;durP2;ratioP2;P2;SDS_P1;SDS_P2;PMS_P1;PMS_P2;Temp;Humidity;BMP_temperature;BMP_pressure;BME280_temperature;BME280_humidity;BME280_pressure;Samples;Min_cycle;Max_cycle;Signal;HPM_P1;HPM_P2
2022/09/03 00:00:05;;;;;;;3.10;0.70;;;18.90;57.10;;;;;;5032086;28;20045;-71
2022/09/03 00:02:39;;;;;;;2.25;0.70;;;18.90;57.00;;;;;;5031956;28;20076;-72
2022/09/03 00:05:14;;;;;;;4.07;0.60;;;18.80;57.20;;;;;;5031863;28;20041;-71
2022/09/03 00:08:22;;;;;;;7.22;0.80;;;18.80;57.00;;;;;;5031739;28;20072;-71
2022/09/03 00:11:13;;;;;;;1.83;0.55;;;18.80;57.00;;;;;;4994942;28;20454;-72
2022/09/03 00:13:48;;;;;;;3.45;0.70;;;18.80;57.00;;;;;;4994772;28;20073;-72
2022/09/03 00:16:18;;;;;;;4.72;0.75;;;18.70;57.20;;;;;;4995035;28;20132;-71
2022/09/03 00:18:57;;;;;;;7.82;0.60;;;18.70;57.40;;;;;;5011136;28;20116;-71
2022/09/03 00:21:36;;;;;;;2.17;0.52;;;18.70;57.40;;;;;;4994737;28;20502;-72
2022/09/03 00:24:05;;;;;;;4.35;0.70;;;18.60;57.30;;;;;;4995005;28;20371;-72
2022/09/03 00:26:34;;;;;;;2.58;0.50;;;18.60;57.50;;;;;;4994708;28;20046;-72
2022/09/03 00:29:13;;;;;;;2.85;0.77;;;18.60;57.70;;;;;;4994546;28;20049;-72
2022/09/03 00:31:46;;;;;;;1.77;0.60;;;18.60;57.80;;;;;;4994814;28;20056;-71
2022/09/03 00:34:28;;;;;;;3.22;0.60;;;18.50;57.80;;;;;;4994646;28;20042;-71
2022/09/03 00:36:54;;;;;;;5.93;0.90;;;18.60;57.90;;;;;;5011519;28;20621;-71
2022/09/03 00:39:22;;;;;;;2.45;0.55;;;18.50;58.00;;;;;;4994472;28;20140;-71
2022/09/03 00:42:08;;;;;;;2.30;0.45;;;18.40;58.10;;;;;;4994882;28;20057;-71
2022/09/03 00:45:01;;;;;;;1.52;0.80;;;18.40;58.10;;;;;;5010549;28;20088;-71
2022/09/03 00:47:51;;;;;;;1.45;0.40;;;18.40;58.30;;;;;;5031591;28;20041;-72
2022/09/03 00:50:30;;;;;;;1.15;0.50;;;18.30;58.40;;;;;;5031468;28;20049;-71
2022/09/03 00:53:29;;;;;;;3.28;0.50;;;18.30;58.60;;;;;;5031483;28;20440;-72
2022/09/03 00:56:06;;;;;;;3.22;0.52;;;18.20;58.70;;;;;;5031496;28;20112;-72
2022/09/03 00:58:54;;;;;;;2.45;0.50;;;18.20;58.80;;;;;;5031341;28;20438;-71
2022/09/03 01:01:25;;;;;;;6.45;0.93;;;18.20;58.80;;;;;;5031716;28;20069;-71
2022/09/03 01:04:20;;;;;;;3.25;0.50;;;18.10;58.90;;;;;;5014891;28;20049;-71
2022/09/03 01:07:17;;;;;;;5.82;0.52;;;18.10;58.80;;;;;;5031565;28;20104;-71
2022/09/03 01:10:01;;;;;;;1.17;0.50;;;18.10;58.90;;;;;;5031208;28;20038;-71
2022/09/03 01:12:29;;;;;;;5.32;0.50;;;18.10;59.00;;;;;;5031296;28;20041;-71
2022/09/03 01:15:12;;;;;;;3.50;0.60;;;18.10;59.40;;;;;;5014843;28;20037;-71
2022/09/03 01:17:44;;;;;;;5.32;0.60;;;18.10;59.30;;;;;;5018692;28;20482;-72
2022/09/03 01:20:16;;;;;;;4.43;0.45;;;18.00;59.30;;;;;;5018365;28;20041;-71
2022/09/03 01:22:59;;;;;;;3.50;0.50;;;18.00;59.60;;;;;;5034819;28;20156;-71
2022/09/03 01:26:12;;;;;;;2.95;0.40;;;18.00;59.60;;;;;;5034731;28;20413;-71
2022/09/03 01:28:53;;;;;;;5.50;0.70;;;18.00;59.50;;;;;;5009577;28;20049;-71
2022/09/03 01:31:25;;;;;;;3.42;0.50;;;17.90;59.60;;;;;;5034674;28;20045;-72
2022/09/03 01:34:02;;;;;;;2.78;0.85;;;17.90;59.70;;;;;;5018106;28;20099;-71
2022/09/03 01:37:05;;;;;;;2.72;0.65;;;17.90;59.60;;;;;;5034556;28;20034;-71
2022/09/03 01:39:42;;;;;;;2.47;0.43;;;18.00;59.90;;;;;;4999883;28;20057;-72
2022/09/03 01:42:41;;;;;;;5.88;0.60;;;18.00;59.90;;;;;;5034427;28;20041;-72
2022/09/03 01:45:33;;;;;;;2.70;0.45;;;17.90;59.80;;;;;;5034354;28;20128;-71
2022/09/03 01:48:18;;;;;;;4.97;0.70;;;17.90;59.80;;;;;;5028863;28;20053;-71
2022/09/03 01:50:49;;;;;;;6.03;0.50;;;17.90;60.00;;;;;;5034323;28;20046;-71
2022/09/03 01:53:40;;;;;;;2.53;0.50;;;17.80;60.00;;;;;;5034482;28;20406;-71
2022/09/03 01:56:24;;;;;;;1.52;0.40;;;17.90;60.00;;;;;;5034255;28;20049;-71
2022/09/03 01:58:50;;;;;;;2.85;0.60;;;17.80;60.00;;;;;;5034381;28;20045;-71
2022/09/03 02:01:28;;;;;;;2.33;0.68;;;17.80;60.20;;;;;;5034325;28;20111;-71
2022/09/03 02:03:58;;;;;;;1.90;0.52;;;17.80;60.20;;;;;;5017795;28;20379;-72
2022/09/03 02:06:26;;;;;;;6.05;0.47;;;17.80;60.30;;;;;;5017799;28;20120;-71
2022/09/03 02:08:52;;;;;;;1.60;0.43;;;17.80;60.20;;;;;;5033841;28;20421;-71
2022/09/03 02:11:18;;;;;;;3.15;0.43;;;17.90;60.20;;;;;;5033714;28;20098;-71
2022/09/03 02:13:48;;;;;;;3.53;0.50;;;17.80;60.20;;;;;;5033736;28;20072;-71
2022/09/03 02:16:19;;;;;;;4.15;0.40;;;17.80;60.30;;;;;;5033646;28;20038;-71
2022/09/03 02:18:51;;;;;;;2.03;0.50;;;17.90;60.30;;;;;;5033867;28;20060;-71
2022/09/03 02:21:20;;;;;;;4.10;0.60;;;17.80;60.40;;;;;;5033660;28;20477;-71
2022/09/03 02:23:47;;;;;;;2.22;0.45;;;17.80;60.50;;;;;;5033602;28;20037;-71
2022/09/03 02:26:17;;;;;;;6.32;0.47;;;17.80;60.50;;;;;;5033228;28;20076;-71
2022/09/03 02:28:43;;;;;;;2.60;0.70;;;17.80;60.50;;;;;;5032726;28;20049;-71
2022/09/03 02:31:09;;;;;;;1.70;0.40;;;17.80;60.60;;;;;;5033740;28;20041;-71
2022/09/03 02:33:38;;;;;;;2.50;0.40;;;17.80;60.70;;;;;;5033417;28;20404;-71
2022/09/03 02:36:07;;;;;;;2.45;0.60;;;17.80;60.70;;;;;;5033370;28;20120;-71
2022/09/03 02:38:33;;;;;;;4.20;0.80;;;17.80;60.70;;;;;;5033182;28;20044;-71
2022/09/03 02:40:58;;;;;;;0.68;0.32;;;17.70;60.60;;;;;;5033291;28;20095;-71
2022/09/03 02:43:39;;;;;;;2.53;0.60;;;17.80;60.80;;;;;;5033218;28;20033;-71
2022/09/03 02:46:09;;;;;;;4.00;0.50;;;17.80;60.80;;;;;;5033184;28;20092;-71
2022/09/03 02:48:35;;;;;;;4.63;0.50;;;17.80;61.00;;;;;;5016469;28;20049;-71
2022/09/03 02:51:00;;;;;;;1.55;0.40;;;17.80;61.10;;;;;;5033017;28;20041;-71
2022/09/03 02:53:27;;;;;;;2.05;0.40;;;17.80;61.00;;;;;;5033042;28;20037;-71
2022/09/03 02:55:58;;;;;;;5.80;0.70;;;17.70;60.90;;;;;;5033235;28;20146;-71
2022/09/03 02:58:25;;;;;;;4.13;0.60;;;17.80;61.20;;;;;;5033113;28;20406;-71
2022/09/03 03:00:51;;;;;;;5.38;0.80;;;17.80;61.10;;;;;;5032835;28;20069;-71
2022/09/03 03:03:17;;;;;;;2.88;0.50;;;17.80;61.20;;;;;;5016471;28;20123;-71
2022/09/03 03:05:46;;;;;;;3.67;0.57;;;17.80;61.20;;;;;;5032878;28;20104;-71
2022/09/03 03:08:13;;;;;;;2.33;0.50;;;17.80;61.30;;;;;;5032726;28;20506;-71
2022/09/03 03:10:40;;;;;;;3.53;0.50;;;17.80;61.30;;;;;;5032690;28;20041;-71
2022/09/03 03:13:05;;;;;;;2.33;0.32;;;17.80;61.40;;;;;;5032938;28;20437;-71
2022/09/03 03:15:31;;;;;;;4.43;0.75;;;17.80;61.40;;;;;;5032645;28;20120;-72
2022/09/03 03:17:56;;;;;;;3.33;0.50;;;17.80;61.50;;;;;;5016354;28;20440;-71
2022/09/03 03:20:22;;;;;;;3.00;0.80;;;17.70;61.60;;;;;;5034080;28;20564;-71
2022/09/03 03:22:48;;;;;;;2.45;0.40;;;17.70;61.70;;;;;;5032588;28;20073;-71
2022/09/03 03:25:14;;;;;;;1.85;0.50;;;17.70;61.70;;;;;;5032482;28;20081;-71
2022/09/03 03:27:40;;;;;;;3.75;0.70;;;17.60;61.80;;;;;;5032721;28;20056;-71
2022/09/03 03:30:08;;;;;;;3.38;0.63;;;17.60;62.00;;;;;;5032349;28;20045;-71
2022/09/03 03:32:35;;;;;;;3.65;0.50;;;17.60;62.00;;;;;;5033258;28;20044;-71
2022/09/03 03:35:00;;;;;;;2.22;0.50;;;17.60;62.00;;;;;;5032318;28;20042;-71
2022/09/03 03:37:26;;;;;;;5.80;0.60;;;17.60;62.10;;;;;;5032177;28;20057;-71
2022/09/03 03:39:51;;;;;;;3.83;0.60;;;17.50;62.20;;;;;;5015455;28;20102;-71
2022/09/03 03:42:17;;;;;;;3.72;0.50;;;17.60;62.40;;;;;;5032203;28;20049;-72
2022/09/03 03:44:42;;;;;;;2.60;0.60;;;17.50;62.40;;;;;;5032429;28;20041;-72
2022/09/03 03:47:08;;;;;;;1.67;0.60;;;17.50;62.50;;;;;;5032134;28;20524;-71
2022/09/03 03:49:34;;;;;;;3.15;0.40;;;17.50;62.50;;;;;;5031916;28;20096;-71
2022/09/03 03:52:01;;;;;;;2.20;0.60;;;17.50;62.60;;;;;;5032307;28;20030;-71
2022/09/03 03:54:27;;;;;;;2.50;0.60;;;17.40;62.80;;;;;;5032003;28;20037;-71
2022/09/03 03:56:53;;;;;;;3.47;0.60;;;17.40;62.80;;;;;;5031961;28;20037;-71
2022/09/03 03:59:18;;;;;;;4.10;0.85;;;17.40;62.90;;;;;;5015431;28;20172;-71
2022/09/03 04:01:44;;;;;;;2.83;0.52;;;17.40;63.00;;;;;;5031879;28;20049;-72
2022/09/03 04:04:09;;;;;;;2.85;0.65;;;17.40;63.10;;;;;;5031903;28;20085;-71
2022/09/03 04:06:35;;;;;;;5.53;0.60;;;17.30;63.20;;;;;;5031829;28;20128;-71
2022/09/03 04:09:00;;;;;;;2.92;0.73;;;17.40;63.20;;;;;;5031865;28;20049;-71
2022/09/03 04:11:26;;;;;;;3.58;1.05;;;17.30;63.30;;;;;;5033052;28;20049;-71
2022/09/03 04:13:52;;;;;;;1.50;0.60;;;17.30;63.50;;;;;;5032344;28;20142;-72
2022/09/03 04:16:20;;;;;;;3.50;0.40;;;17.30;63.50;;;;;;5031740;28;20038;-71
2022/09/03 04:18:48;;;;;;;2.38;0.60;;;17.30;63.70;;;;;;5031912;28;20115;-71
2022/09/03 04:21:17;;;;;;;3.90;0.68;;;17.20;63.70;;;;;;5031987;28;20050;-72
2022/09/03 04:23:44;;;;;;;3.42;0.63;;;17.30;64.00;;;;;;5031905;28;20046;-71
2022/09/03 04:26:13;;;;;;;3.67;0.65;;;17.20;64.00;;;;;;5015249;28;20045;-71
2022/09/03 04:28:39;;;;;;;3.08;0.55;;;17.20;64.20;;;;;;5032053;28;20094;-71
2022/09/03 04:31:08;;;;;;;1.63;0.40;;;17.10;64.30;;;;;;5031891;28;20438;-71
2022/09/03 04:33:35;;;;;;;3.63;0.50;;;17.10;64.40;;;;;;5031854;28;20034;-72
2022/09/03 04:36:09;;;;;;;3.95;0.98;;;17.10;64.50;;;;;;5031548;28;20145;-71
2022/09/03 04:38:37;;;;;;;2.30;1.00;;;17.10;64.60;;;;;;5031592;28;20398;-71
2022/09/03 04:41:03;;;;;;;2.42;0.85;;;17.00;64.70;;;;;;5031494;28;20494;-72
2022/09/03 04:43:29;;;;;;;2.67;0.60;;;17.00;64.90;;;;;;5031526;28;20494;-72
2022/09/03 04:45:57;;;;;;;4.07;0.77;;;17.00;65.00;;;;;;5031714;28;20049;-71
2022/09/03 04:48:23;;;;;;;2.13;0.50;;;17.00;65.20;;;;;;5031320;28;20048;-71
2022/09/03 04:50:48;;;;;;;1.85;0.60;;;17.00;65.20;;;;;;5033010;28;20037;-71
2022/09/03 04:53:14;;;;;;;4.93;0.85;;;17.00;65.40;;;;;;5035320;28;20120;-71
2022/09/03 04:55:40;;;;;;;1.55;0.65;;;16.90;65.50;;;;;;5035545;28;20125;-72
2022/09/03 04:58:08;;;;;;;1.33;0.50;;;16.90;65.50;;;;;;5035054;28;20041;-71
2022/09/03 05:00:36;;;;;;;3.83;0.73;;;16.90;65.80;;;;;;5035139;28;20128;-72
2022/09/03 05:03:03;;;;;;;4.93;0.60;;;16.90;65.90;;;;;;5035412;28;20108;-71
2022/09/03 05:05:30;;;;;;;1.88;0.70;;;16.80;66.00;;;;;;5018621;28;20047;-71
2022/09/03 05:08:03;;;;;;;3.03;0.65;;;16.90;66.30;;;;;;5018469;28;20041;-71
2022/09/03 05:10:29;;;;;;;;;;;16.80;66.50;;;;;;5035359;28;20087;-71
2022/09/03 05:13:03;;;;;;;4.55;0.80;;;16.70;66.50;;;;;;5035295;28;19917;-71
2022/09/03 05:15:30;;;;;;;2.33;0.47;;;16.70;67.00;;;;;;5034995;28;20148;-71
2022/09/03 05:18:00;;;;;;;1.35;0.75;;;16.70;67.00;;;;;;5018281;28;20460;-71
2022/09/03 05:20:31;;;;;;;2.78;0.50;;;16.80;67.30;;;;;;5035085;28;20397;-71
2022/09/03 05:23:02;;;;;;;2.78;0.60;;;16.70;67.40;;;;;;5034800;28;20481;-71
2022/09/03 05:25:30;;;;;;;1.48;0.60;;;16.70;67.60;;;;;;5035008;28;20517;-71
2022/09/03 05:27:57;;;;;;;4.05;0.70;;;16.70;67.80;;;;;;5034841;28;20037;-71
2022/09/03 05:30:22;;;;;;;4.03;0.85;;;16.70;68.10;;;;;;5034585;28;20057;-71
2022/09/03 05:32:48;;;;;;;3.78;0.70;;;16.60;68.30;;;;;;5034569;28;20129;-72
2022/09/03 05:35:14;;;;;;;4.07;0.70;;;16.60;68.60;;;;;;5034513;28;20088;-71
2022/09/03 05:37:39;;;;;;;4.28;1.38;;;16.60;68.60;;;;;;5034608;28;20045;-71
2022/09/03 05:40:09;;;;;;;6.40;0.77;;;16.60;68.80;;;;;;5034329;28;20566;-71
2022/09/03 05:42:36;;;;;;;4.45;0.90;;;16.60;69.00;;;;;;5034589;28;20236;-71
2022/09/03 05:45:05;;;;;;;2.55;0.80;;;16.60;69.20;;;;;;5034318;28;20060;-72
2022/09/03 05:47:31;;;;;;;2.95;0.60;;;16.60;69.40;;;;;;5034539;28;20050;-71
2022/09/03 05:49:57;;;;;;;4.70;0.70;;;16.60;69.70;;;;;;5034094;28;20430;-71
2022/09/03 05:52:22;;;;;;;2.97;0.65;;;16.60;69.90;;;;;;5034228;28;20106;-72
2022/09/03 05:54:48;;;;;;;4.88;1.17;;;16.70;70.20;;;;;;5017986;28;20034;-72
2022/09/03 05:57:13;;;;;;;3.25;0.90;;;16.70;70.50;;;;;;5034180;28;20506;-71
2022/09/03 05:59:39;;;;;;;3.33;0.93;;;16.70;70.60;;;;;;5017560;28;20042;-71
2022/09/03 06:02:05;;;;;;;4.82;0.80;;;16.70;70.60;;;;;;5017384;28;20120;-72
2022/09/03 06:04:31;;;;;;;5.90;0.80;;;16.70;70.90;;;;;;5034050;28;20087;-72
2022/09/03 06:06:56;;;;;;;1.85;0.60;;;16.70;71.10;;;;;;5033988;28;20052;-72
2022/09/03 06:09:22;;;;;;;2.60;0.80;;;16.70;71.50;;;;;;5033801;28;20124;-71
2022/09/03 06:11:48;;;;;;;3.83;0.90;;;16.80;71.70;;;;;;5033944;28;20047;-72
2022/09/03 06:14:15;;;;;;;4.93;1.00;;;16.80;71.80;;;;;;5033894;28;20037;-72
2022/09/03 06:16:43;;;;;;;3.35;0.63;;;16.90;72.10;;;;;;5033827;28;20445;-72
2022/09/03 06:19:10;;;;;;;4.35;1.13;;;16.90;71.90;;;;;;5033677;28;20049;-72
2022/09/03 06:21:42;;;;;;;4.13;0.90;;;16.90;72.00;;;;;;5033763;28;20080;-72
2022/09/03 06:24:10;;;;;;;1.65;0.70;;;16.90;72.20;;;;;;5033785;28;20124;-72
2022/09/03 06:26:36;;;;;;;3.00;0.85;;;16.90;72.30;;;;;;5033607;28;20037;-71
2022/09/03 06:29:02;;;;;;;3.85;1.13;;;16.90;72.70;;;;;;5033398;28;20429;-72
2022/09/03 06:31:28;;;;;;;2.20;0.75;;;16.90;72.90;;;;;;5017073;28;20048;-72
2022/09/03 06:33:54;;;;;;;3.40;0.57;;;16.90;73.00;;;;;;5033570;28;20041;-72
2022/09/03 06:36:21;;;;;;;2.05;0.82;;;16.90;73.30;;;;;;5033523;28;20498;-72
2022/09/03 06:38:50;;;;;;;1.52;0.75;;;16.90;73.30;;;;;;5016716;28;20041;-71
2022/09/03 06:41:22;;;;;;;5.60;1.10;;;16.90;73.60;;;;;;5033309;28;20406;-72
2022/09/03 06:43:48;;;;;;;2.25;0.68;;;16.90;73.90;;;;;;5033381;28;20534;-71
2022/09/03 06:46:19;;;;;;;2.88;0.90;;;16.90;74.60;;;;;;5033237;28;20164;-72
2022/09/03 06:48:45;;;;;;;2.67;0.77;;;16.90;74.30;;;;;;5033045;28;20406;-71
2022/09/03 06:51:13;;;;;;;2.45;0.90;;;16.90;74.40;;;;;;5033153;28;20043;-72
2022/09/03 06:53:41;;;;;;;2.15;0.75;;;17.00;74.90;;;;;;5033122;28;20048;-72
2022/09/03 06:56:24;;;;;;;5.05;0.90;;;17.00;74.80;;;;;;5033302;28;20047;-71
2022/09/03 06:58:51;;;;;;;5.25;1.17;;;17.10;74.70;;;;;;5033284;28;20053;-72
2022/09/03 07:01:19;;;;;;;4.72;0.90;;;17.10;74.80;;;;;;5033046;28;20037;-72
2022/09/03 07:03:47;;;;;;;3.25;0.80;;;17.10;74.80;;;;;;5032941;28;20068;-71
2022/09/03 07:06:15;;;;;;;2.38;0.57;;;17.20;74.80;;;;;;5032867;28;20088;-71
2022/09/03 07:08:41;;;;;;;3.00;0.93;;;17.30;74.50;;;;;;5032667;28;20466;-71
2022/09/03 07:11:13;;;;;;;3.63;0.80;;;17.30;74.50;;;;;;5032875;28;20042;-71
2022/09/03 07:13:44;;;;;;;5.05;1.05;;;17.40;74.60;;;;;;5015908;28;20116;-71
2022/09/03 07:16:15;;;;;;;3.35;0.70;;;17.40;74.60;;;;;;5032815;28;20033;-71
2022/09/03 07:18:45;;;;;;;4.45;1.10;;;17.50;74.40;;;;;;5032940;28;20037;-71
2022/09/03 07:21:13;;;;;;;1.75;0.90;;;17.60;74.00;;;;;;5032619;28;20038;-72
2022/09/03 07:23:39;;;;;;;3.50;0.63;;;17.60;73.90;;;;;;5032877;28;20406;-71
2022/09/03 07:26:08;;;;;;;8.52;0.80;;;17.60;74.00;;;;;;5032664;28;20124;-72
2022/09/03 07:28:39;;;;;;;4.47;0.80;;;17.70;73.70;;;;;;5015920;28;20037;-71
2022/09/03 07:31:10;;;;;;;3.80;0.80;;;17.80;73.60;;;;;;5032426;28;20464;-72
2022/09/03 07:33:36;;;;;;;4.88;0.80;;;17.90;73.20;;;;;;5032432;28;20068;-72
2022/09/03 07:36:13;;;;;;;3.42;0.90;;;18.00;72.90;;;;;;5032577;28;20034;-71
2022/09/03 07:38:39;;;;;;;3.33;0.70;;;18.10;73.10;;;;;;5032149;28;20037;-71
2022/09/03 07:41:07;;;;;;;0.95;0.55;;;18.10;72.50;;;;;;5032525;28;20115;-71
2022/09/03 07:43:39;;;;;;;4.78;0.85;;;18.20;72.20;;;;;;5032244;28;20037;-72
2022/09/03 07:46:07;;;;;;;3.03;0.88;;;18.40;71.60;;;;;;5032194;28;20069;-71
2022/09/03 07:48:33;;;;;;;2.45;0.70;;;18.50;71.10;;;;;;5032243;28;20064;-71
2022/09/03 07:51:02;;;;;;;2.97;0.70;;;18.60;71.40;;;;;;5032425;28;20494;-72
2022/09/03 07:53:28;;;;;;;3.10;1.02;;;18.70;70.90;;;;;;5032359;28;20041;-72
2022/09/03 07:56:01;;;;;;;4.13;0.60;;;18.80;71.10;;;;;;5032086;28;20083;-72
2022/09/03 07:58:29;;;;;;;3.58;0.80;;;19.00;71.00;;;;;;5032068;28;20402;-71
2022/09/03 08:00:56;;;;;;;6.60;0.80;;;19.20;70.50;;;;;;5032038;28;20449;-72
2022/09/03 08:03:21;;;;;;;3.28;0.70;;;19.30;69.80;;;;;;5032070;28;20041;-72
2022/09/03 08:05:47;;;;;;;3.40;0.73;;;19.50;69.10;;;;;;5032395;28;20072;-71
2022/09/03 08:08:13;;;;;;;2.70;0.70;;;19.60;68.10;;;;;;5031827;28;20474;-74
2022/09/03 08:10:40;;;;;;;4.43;0.75;;;19.70;67.60;;;;;;5031996;28;20047;-72
2022/09/03 08:13:05;;;;;;;1.92;0.65;;;19.90;67.30;;;;;;5015389;28;20407;-72
2022/09/03 08:15:35;;;;;;;1.63;0.77;;;20.00;66.60;;;;;;5015693;28;20124;-71
2022/09/03 08:18:01;;;;;;;1.85;0.75;;;20.20;65.70;;;;;;5033157;28;20124;-71
2022/09/03 08:20:27;;;;;;;1.80;0.80;;;20.30;65.40;;;;;;5031783;28;20120;-72
2022/09/03 08:22:59;;;;;;;4.00;0.85;;;20.40;64.80;;;;;;5031739;28;20041;-72
2022/09/03 08:25:25;;;;;;;3.25;0.65;;;20.60;64.60;;;;;;5033008;28;20049;-71
2022/09/03 08:27:50;;;;;;;3.50;0.70;;;20.70;64.10;;;;;;5035739;28;20410;-71
2022/09/03 08:30:16;;;;;;;5.15;0.90;;;20.90;63.80;;;;;;5019310;28;20041;-71
2022/09/03 08:32:42;;;;;;;3.95;0.82;;;21.10;63.60;;;;;;5035774;28;20041;-71
2022/09/03 08:35:08;;;;;;;2.67;0.82;;;21.20;62.50;;;;;;5035974;28;20041;-71
2022/09/03 08:37:34;;;;;;;6.28;0.98;;;21.40;62.00;;;;;;5035583;28;20041;-71
2022/09/03 08:40:00;;;;;;;5.03;0.93;;;21.50;61.70;;;;;;5019116;28;20049;-71
2022/09/03 08:42:45;;;;;;;1.38;0.60;;;21.70;61.30;;;;;;5035544;28;20406;-71
2022/09/03 08:45:18;;;;;;;1.90;0.80;;;21.80;61.10;;;;;;5035824;28;20103;-71
2022/09/03 08:47:50;;;;;;;6.28;0.85;;;22.00;60.90;;;;;;5035497;28;20521;-71
2022/09/03 08:50:29;;;;;;;1.92;0.63;;;22.10;59.90;;;;;;5035689;28;20038;-71
2022/09/03 08:53:21;;;;;;;2.10;0.70;;;22.30;59.60;;;;;;5035650;28;20029;-72
2022/09/03 08:55:55;;;;;;;3.08;0.70;;;22.60;59.20;;;;;;5035404;28;20041;-72
2022/09/03 08:58:31;;;;;;;3.80;0.60;;;22.70;57.80;;;;;;5035283;28;20049;-72
2022/09/03 09:01:17;;;;;;;2.28;0.70;;;22.90;57.40;;;;;;5035536;28;20068;-72
2022/09/03 09:03:59;;;;;;;6.22;0.77;;;23.10;57.80;;;;;;5035485;28;20060;-72
2022/09/03 09:06:34;;;;;;;4.63;0.63;;;23.40;57.00;;;;;;5018862;28;20068;-71
2022/09/03 09:09:43;;;;;;;1.80;0.57;;;23.70;56.60;;;;;;5034970;28;20045;-72
2022/09/03 09:12:14;;;;;;;4.32;0.95;;;24.00;55.70;;;;;;5035042;28;20075;-72
2022/09/03 09:15:04;;;;;;;3.58;0.68;;;24.20;54.90;;;;;;5035288;28;20037;-71
2022/09/03 09:17:54;;;;;;;4.28;0.70;;;24.40;55.20;;;;;;5035029;28;20090;-72
2022/09/03 09:20:31;;;;;;;6.70;0.90;;;24.50;54.20;;;;;;5035163;28;20041;-72
2022/09/03 09:23:13;;;;;;;4.30;0.70;;;24.60;53.30;;;;;;5035171;28;20141;-72
2022/09/03 09:25:49;;;;;;;4.13;0.68;;;24.80;53.50;;;;;;5034819;28;20052;-72
2022/09/03 09:28:23;;;;;;;4.03;0.75;;;25.00;52.60;;;;;;5034997;28;20037;-71
2022/09/03 09:30:55;;;;;;;4.20;0.63;;;25.00;51.90;;;;;;5034698;28;20045;-71
2022/09/03 09:33:22;;;;;;;4.75;0.77;;;25.10;52.00;;;;;;5034740;28;20041;-72
2022/09/03 09:35:48;;;;;;;2.58;0.70;;;25.30;52.20;;;;;;5034170;28;20543;-72
2022/09/03 09:38:14;;;;;;;3.30;0.90;;;25.50;51.40;;;;;;5017757;28;20440;-71
2022/09/03 09:40:44;;;;;;;10.40;1.10;;;25.60;50.80;;;;;;5017971;28;20045;-72
2022/09/03 09:43:15;;;;;;;8.52;1.02;;;25.70;50.50;;;;;;5034697;28;20045;-72
2022/09/03 09:45:47;;;;;;;1.85;0.70;;;25.90;50.10;;;;;;5034442;28;20414;-72
2022/09/03 09:48:36;;;;;;;5.90;1.43;;;26.00;50.10;;;;;;5034386;28;20048;-72
2022/09/03 09:51:04;;;;;;;2.03;0.65;;;26.00;49.50;;;;;;5034572;28;20280;-72
2022/09/03 09:53:29;;;;;;;5.50;0.77;;;26.20;49.50;;;;;;5017843;28;20041;-72
2022/09/03 09:55:56;;;;;;;5.10;0.80;;;26.20;49.20;;;;;;5034217;28;20429;-72
2022/09/03 09:58:27;;;;;;;6.45;1.02;;;26.30;49.00;;;;;;5034316;28;20121;-72
2022/09/03 10:01:14;;;;;;;2.70;0.70;;;26.50;48.80;;;;;;5034446;28;20640;-72
2022/09/03 10:03:49;;;;;;;5.70;0.70;;;26.70;48.00;;;;;;5034141;28;20060;-72
2022/09/03 10:09:29;;;;;;;1.95;0.65;;;26.80;48.10;;;;;;5033832;28;20050;-72
2022/09/03 10:12:13;;;;;;;5.32;0.65;;;27.10;49.00;;;;;;5026038;28;20052;-72
2022/09/03 10:14:44;;;;;;;1.83;0.75;;;27.30;47.10;;;;;;5017434;28;20124;-72
2022/09/03 10:17:19;;;;;;;4.00;0.60;;;27.60;46.40;;;;;;5034455;28;20090;-72
2022/09/03 10:20:26;;;;;;;6.50;0.85;;;27.60;45.90;;;;;;5033718;28;20689;-72
2022/09/03 10:23:02;;;;;;;1.55;0.70;;;27.70;46.00;;;;;;5017206;28;20041;-72
2022/09/03 10:25:52;;;;;;;4.32;0.50;;;27.90;46.20;;;;;;5033743;28;20095;-72
2022/09/03 10:28:24;;;;;;;2.20;0.60;;;28.10;45.60;;;;;;5033600;28;20609;-72
2022/09/03 10:31:12;;;;;;;3.50;0.98;;;28.20;44.80;;;;;;5033572;28;20095;-73
2022/09/03 10:33:58;;;;;;;1.70;0.68;;;28.40;45.50;;;;;;5033828;28;20037;-73
2022/09/03 10:36:32;;;;;;;3.20;0.90;;;28.50;44.50;;;;;;5033693;28;20055;-72
2022/09/03 10:39:20;;;;;;;3.53;0.85;;;28.60;44.20;;;;;;5033182;28;20037;-72
2022/09/03 10:42:15;;;;;;;5.28;0.65;;;28.50;43.80;;;;;;5017242;28;20072;-72
2022/09/03 10:44:46;;;;;;;1.90;0.68;;;28.70;44.20;;;;;;5018796;28;20059;-72
2022/09/03 10:47:36;;;;;;;4.60;0.75;;;28.80;43.80;;;;;;5033144;28;20238;-71
2022/09/03 10:50:16;;;;;;;7.72;0.80;;;28.90;43.30;;;;;;5032829;28;20041;-71
2022/09/03 10:52:56;;;;;;;5.63;0.80;;;29.10;42.70;;;;;;5033246;28;20044;-71
2022/09/03 10:55:48;;;;;;;2.40;0.70;;;29.10;42.30;;;;;;5033144;28;20084;-71
2022/09/03 10:58:16;;;;;;;2.75;0.75;;;29.10;40.90;;;;;;5032945;28;20041;-71
2022/09/03 11:00:52;;;;;;;3.35;0.80;;;29.10;41.80;;;;;;5033296;28;20112;-71
2022/09/03 11:03:47;;;;;;;3.10;0.60;;;29.10;41.00;;;;;;5033284;28;20056;-71
2022/09/03 11:06:27;;;;;;;2.28;0.60;;;29.30;41.20;;;;;;5032942;28;20049;-71
2022/09/03 11:09:12;;;;;;;7.43;0.70;;;29.30;41.60;;;;;;5033221;28;20068;-71
2022/09/03 11:11:50;;;;;;;2.28;0.70;;;29.40;40.50;;;;;;5033256;28;20077;-71
2022/09/03 11:14:27;;;;;;;3.75;0.57;;;29.40;40.30;;;;;;5016613;28;20084;-71
2022/09/03 11:17:01;;;;;;;3.78;0.77;;;29.50;40.60;;;;;;5032767;28;20510;-71
2022/09/03 11:19:36;;;;;;;5.20;0.90;;;29.60;40.80;;;;;;5032634;28;20041;-71
2022/09/03 11:22:05;;;;;;;2.78;0.65;;;29.70;40.40;;;;;;5032656;28;20094;-71
2022/09/03 11:24:32;;;;;;;7.22;0.80;;;29.80;39.90;;;;;;5032577;28;20045;-71
2022/09/03 11:27:00;;;;;;;4.50;0.60;;;29.80;39.30;;;;;;5032568;28;20494;-71
2022/09/03 11:29:50;;;;;;;3.78;0.77;;;29.80;38.70;;;;;;5032450;28;20037;-71
2022/09/03 11:32:24;;;;;;;6.55;0.63;;;29.80;39.20;;;;;;5032670;28;20037;-72
2022/09/03 11:34:53;;;;;;;3.25;0.40;;;29.70;38.60;;;;;;5032384;28;20410;-71
2022/09/03 11:37:23;;;;;;;3.55;0.77;;;29.70;38.80;;;;;;5032390;28;20038;-71
2022/09/03 11:40:05;;;;;;;4.78;0.40;;;29.80;38.50;;;;;;5032438;28;20080;-71
2022/09/03 11:42:37;;;;;;;5.68;0.60;;;29.90;38.70;;;;;;5032338;28;20045;-71
2022/09/03 11:45:31;;;;;;;3.72;0.70;;;29.90;38.50;;;;;;5032572;28;20064;-71
2022/09/03 11:47:57;;;;;;;3.88;0.60;;;30.00;39.10;;;;;;5015505;28;20417;-70
2022/09/03 11:50:32;;;;;;;4.65;0.65;;;30.20;39.20;;;;;;5032042;28;20059;-71
2022/09/03 11:53:13;;;;;;;2.47;0.65;;;30.40;38.50;;;;;;5031993;28;20040;-71
2022/09/03 11:55:57;;;;;;;3.90;0.63;;;30.40;37.20;;;;;;5031931;28;20091;-72
2022/09/03 11:58:36;;;;;;;5.97;0.70;;;30.40;37.60;;;;;;5031892;28;20041;-71
2022/09/03 12:01:06;;;;;;;2.22;0.50;;;30.50;37.90;;;;;;5032006;28;20041;-72
2022/09/03 12:03:49;;;;;;;2.22;1.00;;;30.60;37.90;;;;;;5031932;28;20038;-71
2022/09/03 12:06:42;;;;;;;4.68;0.80;;;30.70;37.40;;;;;;5031928;28;20516;-72
2022/09/03 12:09:16;;;;;;;2.65;0.65;;;30.80;37.10;;;;;;5031718;28;20048;-71
2022/09/03 12:11:44;;;;;;;3.10;0.73;;;31.00;37.40;;;;;;5032113;28;20513;-71
2022/09/03 12:14:35;;;;;;;1.67;0.80;;;31.10;37.40;;;;;;5015290;28;20579;-71
2022/09/03 12:17:30;;;;;;;6.95;0.60;;;31.20;36.40;;;;;;5031785;28;20084;-71
2022/09/03 12:19:57;;;;;;;4.68;0.60;;;31.20;36.10;;;;;;5031720;28;20041;-71
2022/09/03 12:22:27;;;;;;;2.90;0.70;;;31.40;37.10;;;;;;5031797;28;20095;-72
2022/09/03 12:24:54;;;;;;;4.80;0.75;;;31.30;36.50;;;;;;5031752;28;20045;-72
2022/09/03 12:27:24;;;;;;;3.80;0.80;;;31.40;36.70;;;;;;5031682;28;20044;-71
2022/09/03 12:29:56;;;;;;;2.67;0.70;;;31.40;36.80;;;;;;5031639;28;20103;-72
2022/09/03 12:32:23;;;;;;;2.17;0.60;;;31.60;36.10;;;;;;5031718;28;20537;-72
2022/09/03 12:34:48;;;;;;;4.03;1.00;;;31.60;36.50;;;;;;5031690;28;20053;-72
2022/09/03 12:37:36;;;;;;;4.43;0.50;;;31.60;36.10;;;;;;5031484;28;20034;-72
2022/09/03 12:40:02;;;;;;;3.90;0.70;;;31.70;36.00;;;;;;5031863;28;20045;-72
2022/09/03 12:42:32;;;;;;;2.92;0.80;;;31.80;35.80;;;;;;5031872;28;20383;-72
2022/09/03 12:45:06;;;;;;;2.83;0.60;;;31.90;35.00;;;;;;5031600;28;20045;-71
2022/09/03 12:47:38;;;;;;;2.85;0.60;;;31.70;34.50;;;;;;5031591;28;20095;-71
2022/09/03 12:50:14;;;;;;;3.42;0.60;;;31.70;34.70;;;;;;5031541;28;20052;-71
2022/09/03 12:52:42;;;;;;;4.78;0.85;;;31.60;35.00;;;;;;5031833;28;20045;-72
2022/09/03 12:55:26;;;;;;;4.97;0.80;;;31.60;35.20;;;;;;5031438;28;20044;-72
2022/09/03 12:57:58;;;;;;;4.05;0.65;;;31.70;35.30;;;;;;5031420;28;20038;-70
2022/09/03 13:00:23;;;;;;;3.80;0.60;;;31.70;35.70;;;;;;5031545;28;20498;-71
2022/09/03 13:03:10;;;;;;;4.43;0.70;;;32.00;35.80;;;;;;5031426;28;20337;-71
2022/09/03 13:05:47;;;;;;;5.50;0.77;;;32.00;35.10;;;;;;5031663;28;20068;-71
2022/09/03 13:08:32;;;;;;;2.58;0.60;;;31.90;34.80;;;;;;5031344;28;20557;-71
2022/09/03 13:11:02;;;;;;;5.35;0.70;;;31.70;34.40;;;;;;5031575;28;20077;-71
2022/09/03 13:13:35;;;;;;;5.65;0.85;;;31.70;35.40;;;;;;5034998;28;20041;-71
2022/09/03 13:16:19;;;;;;;3.17;0.52;;;31.70;35.30;;;;;;5035278;28;20063;-71
2022/09/03 13:19:20;;;;;;;3.60;0.80;;;31.70;34.80;;;;;;5034892;28;20033;-71